Time;durP1;ratioP1;P1;durP2;ratioP2;P2;SDS_P1;SDS_P2;PMS_P1;PMS_P2;Temp;Humidity;BMP_temperature;BMP_pressure;BME280_temperature;BME280_humidity;BME280_pressure;Samples;Min_cycle;Max_cycle;Signal;HPM_P1;HPM_P2
2021/09/13 00:02:29;;;;;;;1.55;1.40;;;16.10;71.00;;;;;;5004105;28;97983;-76
2021/09/13 00:05:01;;;;;;;1.45;1.30;;;16.20;71.40;;;;;;5013692;28;96025;-76
2021/09/13 00:07:32;;;;;;;1.98;1.58;;;16.20;71.60;;;;;;5016222;28;97704;-74
2021/09/13 00:10:04;;;;;;;;;;;16.30;61.20;;;;;;5031107;28;95657;-76
2021/09/13 00:12:38;;;;;;;2.03;1.20;;;16.30;71.80;;;;;;5033519;28;95946;-75
2021/09/13 00:15:10;;;;;;;1.70;1.08;;;16.40;71.90;;;;;;5029222;27;97647;-75
2021/09/13 00:17:42;;;;;;;2.47;1.25;;;16.40;71.90;;;;;;5023343;27;95668;-76
2021/09/13 00:20:13;;;;;;;1.33;1.20;;;16.50;72.00;;;;;;4997860;28;96269;-76
2021/09/13 00:22:44;;;;;;;1.13;1.00;;;16.60;72.10;;;;;;5030173;28;95962;-75
2021/09/13 00:25:16;;;;;;;1.40;1.30;;;16.70;72.20;;;;;;5009207;28;96239;-75
2021/09/13 00:27:47;;;;;;;1.20;1.10;;;16.70;72.00;;;;;;5032633;28;95683;-76
2021/09/13 00:30:19;;;;;;;1.55;1.27;;;16.80;72.10;;;;;;5010462;27;96069;-76
2021/09/13 00:32:51;;;;;;;1.15;1.05;;;16.90;72.00;;;;;;5010071;28;95915;-76
2021/09/13 00:35:27;;;;;;;1.27;1.15;;;16.90;71.80;;;;;;5033344;27;95297;-76
2021/09/13 00:37:59;;;;;;;1.27;0.95;;;17.00;72.00;;;;;;4992759;28;95630;-77
2021/09/13 00:40:32;;;;;;;1.30;1.20;;;17.10;71.90;;;;;;5036517;28;95535;-74
2021/09/13 00:43:03;;;;;;;1.45;1.00;;;17.20;71.80;;;;;;5035595;28;95954;-77
2021/09/13 00:45:33;;;;;;;2.20;1.75;;;17.30;61.00;;;;;;5013743;28;96316;-76
2021/09/13 00:48:03;;;;;;;0.95;0.90;;;17.30;71.60;;;;;;5035630;28;95401;-74
2021/09/13 00:50:33;;;;;;;2.08;1.02;;;17.40;71.60;;;;;;5032252;28;95406;-75
2021/09/13 00:53:05;;;;;;;1.42;1.30;;;17.40;70.20;;;;;;5034179;28;96850;-75
2021/09/13 00:55:57;;;;;;;1.52;1.10;;;17.30;69.70;;;;;;5012667;28;96690;-75
2021/09/13 00:58:30;;;;;;;4.13;1.40;;;17.30;69.40;;;;;;5016330;28;95724;-75
2021/09/13 01:01:01;;;;;;;3.05;1.38;;;17.30;69.20;;;;;;5026383;27;96353;-76
2021/09/13 01:03:33;;;;;;;3.58;1.13;;;17.30;68.90;;;;;;4986500;28;99078;-77
2021/09/13 01:06:05;;;;;;;4.72;1.10;;;17.30;68.80;;;;;;5014838;28;95700;-76
2021/09/13 01:08:35;;;;;;;2.50;1.50;;;17.30;69.00;;;;;;4983319;28;95956;-75
2021/09/13 01:11:10;;;;;;;3.10;1.38;;;17.30;68.90;;;;;;4978790;28;96003;-76
2021/09/13 01:13:41;;;;;;;1.67;1.05;;;17.40;68.90;;;;;;5013878;28;95940;-76
2021/09/13 01:16:12;;;;;;;2.65;1.00;;;17.40;68.90;;;;;;4986497;28;97576;-75
2021/09/13 01:18:42;;;;;;;1.75;1.38;;;17.50;68.70;;;;;;4990310;28;95359;-78
2021/09/13 01:21:13;;;;;;;3.95;1.40;;;17.50;68.70;;;;;;5013486;28;95620;-74
2021/09/13 01:23:46;;;;;;;1.65;1.13;;;17.60;69.00;;;;;;4994016;28;98129;-73
2021/09/13 01:26:18;;;;;;;3.13;1.30;;;17.60;68.70;;;;;;5027517;28;95519;-72
2021/09/13 01:28:49;;;;;;;1.85;1.10;;;17.70;68.40;;;;;;5002772;28;95959;-73
2021/09/13 01:31:24;;;;;;;6.97;1.40;;;17.60;68.30;;;;;;4999703;28;95406;-71
2021/09/13 01:33:55;;;;;;;3.78;1.10;;;17.70;68.30;;;;;;5017067;28;95753;-76
2021/09/13 01:36:32;;;;;;;2.00;1.13;;;17.70;68.10;;;;;;5005288;28;96038;-73
2021/09/13 01:39:08;;;;;;;4.80;1.38;;;17.80;68.50;;;;;;5008788;28;95170;-76
2021/09/13 01:41:39;;;;;;;8.80;1.40;;;17.80;68.40;;;;;;5008644;28;95689;-75
2021/09/13 01:44:12;;;;;;;4.25;1.27;;;18.00;68.30;;;;;;5001722;28;95296;-76
2021/09/13 01:46:43;;;;;;;3.95;1.35;;;18.00;68.20;;;;;;4990568;28;97129;-75
2021/09/13 01:49:15;;;;;;;1.10;0.93;;;18.20;68.10;;;;;;5014936;28;95733;-77
2021/09/13 01:51:47;;;;;;;2.75;0.90;;;18.20;68.30;;;;;;5005690;28;95886;-77
2021/09/13 01:54:17;;;;;;;1.93;0.87;;;18.40;68.40;;;;;;4994062;28;98338;-75
2021/09/13 01:56:50;;;;;;;0.88;0.63;;;18.50;68.40;;;;;;4997223;28;95507;-76
2021/09/13 01:59:36;;;;;;;1.52;1.05;;;18.60;68.50;;;;;;4993698;28;96020;-77
2021/09/13 02:02:08;;;;;;;1.42;0.70;;;18.70;68.40;;;;;;4996987;28;95921;-77
2021/09/13 02:04:45;;;;;;;1.58;0.90;;;18.80;68.50;;;;;;5005989;28;96209;-77
2021/09/13 02:07:18;;;;;;;1.42;0.80;;;18.90;68.60;;;;;;5014264;28;97216;-75
2021/09/13 02:09:53;;;;;;;1.70;0.90;;;18.90;68.60;;;;;;5033358;28;95902;-73
2021/09/13 02:12:27;;;;;;;1.55;1.15;;;19.00;68.60;;;;;;5013960;28;95507;-75
2021/09/13 02:15:00;;;;;;;1.00;1.00;;;19.10;68.50;;;;;;5012596;28;96655;-75
2021/09/13 02:17:35;;;;;;;2.30;1.00;;;19.20;68.60;;;;;;5004923;27;95591;-74
2021/09/13 02:20:11;;;;;;;5.63;1.13;;;19.20;68.60;;;;;;5002515;28;95911;-76
2021/09/13 02:22:41;;;;;;;;;;;19.20;65.20;;;;;;5013711;28;95286;-75
2021/09/13 02:25:14;;;;;;;2.50;1.10;;;19.20;66.20;;;;;;5006045;27;97003;-78
2021/09/13 02:27:46;;;;;;;1.52;1.25;;;19.40;66.50;;;;;;5010403;28;95845;-75
2021/09/13 02:30:16;;;;;;;2.25;1.17;;;19.50;66.70;;;;;;5009434;28;95817;-77
2021/09/13 02:32:48;;;;;;;2.90;1.30;;;19.50;66.70;;;;;;5005113;28;95401;-77
2021/09/13 02:35:18;;;;;;;1.40;1.10;;;19.60;66.90;;;;;;5034568;28;96887;-76
2021/09/13 02:37:49;;;;;;;1.60;1.20;;;19.70;66.70;;;;;;5013580;28;98374;-77
2021/09/13 02:40:21;;;;;;;2.83;1.25;;;19.80;66.80;;;;;;5010800;28;95864;-75
2021/09/13 02:42:51;;;;;;;4.25;1.27;;;19.90;66.70;;;;;;5014624;28;95885;-72
2021/09/13 02:45:21;;;;;;;2.53;1.15;;;20.00;66.70;;;;;;5010989;28;97954;-74
2021/09/13 02:47:51;;;;;;;1.98;1.50;;;20.10;66.60;;;;;;5033479;28;95516;-74
2021/09/13 02:50:22;;;;;;;1.67;1.10;;;20.20;66.60;;;;;;5014210;28;95333;-76
2021/09/13 02:52:54;;;;;;;1.83;1.23;;;20.30;66.30;;;;;;5010529;28;96502;-74
2021/09/13 02:55:26;;;;;;;2.13;1.33;;;20.50;55.90;;;;;;5014703;28;96854;-74
2021/09/13 02:57:58;;;;;;;3.00;1.33;;;20.50;66.10;;;;;;5030839;27;96024;-72
2021/09/13 03:00:29;;;;;;;2.15;1.38;;;20.60;65.30;;;;;;5008486;28;95593;-75
2021/09/13 03:03:05;;;;;;;6.03;5.72;;;20.60;65.70;;;;;;5015295;27;97273;-77
2021/09/13 03:05:37;;;;;;;5.65;5.35;;;20.70;65.80;;;;;;5038436;28;96397;-69
2021/09/13 03:08:18;;;;;;;2.58;2.38;;;20.80;65.80;;;;;;5018505;28;97857;-75
2021/09/13 03:10:49;;;;;;;1.73;1.20;;;20.90;65.60;;;;;;5038078;28;96036;-74
2021/09/13 03:13:20;;;;;;;;;;;21.00;65.60;;;;;;5003478;28;95437;-76
2021/09/13 03:15:50;;;;;;;2.33;1.20;;;21.00;65.40;;;;;;5013904;28;98452;-74
2021/09/13 03:18:20;;;;;;;2.13;1.43;;;21.10;64.90;;;;;;4996036;27;95561;-76
2021/09/13 03:20:50;;;;;;;2.40;1.45;;;21.00;63.80;;;;;;5015532;28;95798;-77
2021/09/13 03:23:20;;;;;;;3.33;1.58;;;21.00;64.30;;;;;;5013492;28;95381;-75
2021/09/13 03:25:51;;;;;;;2.60;1.05;;;21.10;61.60;;;;;;5014722;28;97977;-76
2021/09/13 03:28:22;;;;;;;4.78;1.63;;;21.10;58.50;;;;;;5013129;28;97414;-76
2021/09/13 03:30:52;;;;;;;3.08;1.20;;;21.10;61.40;;;;;;5007513;28;95984;-76
2021/09/13 03:33:22;;;;;;;2.20;1.80;;;21.10;57.90;;;;;;5004549;28;96124;-73
2021/09/13 03:35:54;;;;;;;2.50;1.15;;;21.10;55.20;;;;;;5035989;28;96469;-76
2021/09/13 03:38:24;;;;;;;4.00;2.00;;;21.20;58.20;;;;;;5016990;28;97516;-76
2021/09/13 03:40:54;;;;;;;2.67;1.48;;;21.20;55.80;;;;;;5000525;28;95846;-75
2021/09/13 03:43:24;;;;;;;2.95;1.60;;;21.40;57.40;;;;;;5008032;28;95440;-75
2021/09/13 03:45:55;;;;;;;5.13;1.60;;;21.40;57.60;;;;;;5025237;27;98797;-76
2021/09/13 03:48:58;;;;;;;2.78;1.15;;;21.50;54.20;;;;;;5014049;28;97823;-74
2021/09/13 03:51:29;;;;;;;2.00;1.10;;;21.50;54.20;;;;;;5015364;28;96252;-74
2021/09/13 03:54:01;;;;;;;1.45;1.20;;;21.60;54.30;;;;;;4993617;28;95477;-73
2021/09/13 03:56:33;;;;;;;2.42;1.45;;;21.70;55.00;;;;;;5003800;28;96717;-76
2021/09/13 03:59:06;;;;;;;4.50;4.07;;;21.80;54.70;;;;;;5020881;28;97372;-75
2021/09/13 04:01:41;;;;;;;1.48;1.38;;;21.80;54.70;;;;;;4992216;28;95226;-75
2021/09/13 04:04:15;;;;;;;2.33;1.55;;;21.90;54.30;;;;;;4985186;28;95420;-75
2021/09/13 04:06:53;;;;;;;2.33;1.63;;;22.00;52.50;;;;;;4984852;28;98326;-75
2021/09/13 04:13:10;;;;;;;2.30;1.23;;;22.10;53.80;;;;;;4976499;28;95847;-74
2021/09/13 04:15:58;;;;;;;1.27;1.00;;;22.10;53.10;;;;;;4974536;28;95716;-77
2021/09/13 04:19:08;;;;;;;2.15;1.20;;;22.20;51.40;;;;;;4944043;28;96557;-73
2021/09/13 04:21:57;;;;;;;1.92;1.13;;;22.20;51.40;;;;;;4938222;28;95490;-73
2021/09/13 04:24:41;;;;;;;6.80;1.48;;;22.10;52.20;;;;;;4978222;28;95547;-76
2021/09/13 04:27:32;;;;;;;2.75;1.83;;;21.90;52.70;;;;;;5016003;28;95162;-75
2021/09/13 04:30:23;;;;;;;3.00;1.35;;;21.60;53.40;;;;;;5010370;28;95674;-75
2021/09/13 04:33:13;;;;;;;3.50;1.15;;;21.50;52.00;;;;;;5034270;28;102395;-76
2021/09/13 04:36:02;;;;;;;4.75;1.25;;;21.10;52.40;;;;;;5026812;28;95923;-74
2021/09/13 04:39:00;;;;;;;2.22;1.05;;;20.80;51.00;;;;;;5032220;28;95723;-76
2021/09/13 04:41:49;;;;;;;3.35;1.05;;;20.60;51.30;;;;;;5015182;28;96313;-77
2021/09/13 04:44:40;;;;;;;3.58;1.10;;;20.40;51.60;;;;;;5017199;28;97358;-77
2021/09/13 04:47:24;;;;;;;4.10;1.23;;;20.30;51.00;;;;;;5011547;28;95835;-75
2021/09/13 04:50:29;;;;;;;4.90;1.35;;;20.20;38.80;;;;;;4958016;28;95882;-75
2021/09/13 04:53:24;;;;;;;4.95;1.42;;;20.10;53.00;;;;;;5033974;28;96450;-75
2021/09/13 04:55:58;;;;;;;4.93;1.25;;;20.10;52.50;;;;;;5016529;28;97688;-75
2021/09/13 04:58:31;;;;;;;3.00;0.93;;;20.00;52.40;;;;;;5009521;28;95448;-76
2021/09/13 05:01:07;;;;;;;3.42;1.20;;;19.90;51.80;;;;;;5011198;28;95550;-79
2021/09/13 05:03:41;;;;;;;3.78;1.25;;;19.80;53.50;;;;;;5013731;28;97928;-76
2021/09/13 05:06:12;;;;;;;3.03;0.90;;;19.80;53.40;;;;;;5016810;28;97188;-75
2021/09/13 05:08:43;;;;;;;;;;;19.80;53.10;;;;;;5037558;27;95831;-76
2021/09/13 05:11:17;;;;;;;1.75;0.60;;;19.70;51.00;;;;;;5016506;28;95805;-75
2021/09/13 05:13:51;;;;;;;1.60;0.60;;;19.70;53.50;;;;;;5020424;28;97070;-76
2021/09/13 05:16:21;;;;;;;2.47;0.98;;;19.80;52.00;;;;;;5008324;28;97234;-76
2021/09/13 05:18:51;;;;;;;1.70;0.93;;;19.90;53.40;;;;;;4994534;27;95541;-77
2021/09/13 05:21:21;;;;;;;2.03;0.95;;;19.90;51.20;;;;;;5002834;28;95345;-76
2021/09/13 05:23:58;;;;;;;3.40;1.00;;;19.90;52.00;;;;;;5020358;28;96303;-78
2021/09/13 05:26:29;;;;;;;3.13;1.05;;;19.90;52.40;;;;;;5015612;28;96874;-77
2021/09/13 05:29:00;;;;;;;1.70;0.80;;;20.00;51.80;;;;;;5012267;28;95823;-77
2021/09/13 05:31:31;;;;;;;2.90;1.17;;;20.00;52.20;;;;;;5033738;27;95448;-76
2021/09/13 05:34:03;;;;;;;2.40;0.60;;;20.00;53.10;;;;;;5039270;28;95914;-76
2021/09/13 05:36:34;;;;;;;2.15;0.90;;;20.10;52.90;;;;;;5018464;28;96521;-75
2021/09/13 05:39:08;;;;;;;;;;;20.20;55.60;;;;;;5004309;28;96005;-78
2021/09/13 05:41:53;;;;;;;2.70;0.95;;;20.30;52.80;;;;;;5016008;28;96119;-73
2021/09/13 05:44:28;;;;;;;1.42;0.80;;;20.30;53.70;;;;;;5009740;28;96122;-72
2021/09/13 05:47:01;;;;;;;3.58;1.05;;;20.40;52.90;;;;;;5016133;28;97249;-71
2021/09/13 05:49:31;;;;;;;;;;;20.40;53.20;;;;;;5013167;28;96543;-74
2021/09/13 05:52:03;;;;;;;3.28;1.60;;;20.40;50.80;;;;;;5009008;28;95628;-73
2021/09/13 05:54:40;;;;;;;3.35;1.15;;;20.40;51.90;;;;;;5025487;28;97510;-73
2021/09/13 05:57:11;;;;;;;3.88;1.55;;;20.40;52.20;;;;;;4992390;28;95829;-76
2021/09/13 05:59:47;;;;;;;2.00;1.60;;;20.40;50.60;;;;;;5009882;28;95332;-71
2021/09/13 06:02:21;;;;;;;2.45;1.20;;;20.30;51.20;;;;;;5005216;28;95535;-71
2021/09/13 06:05:21;;;;;;;2.50;1.23;;;20.20;50.50;;;;;;5009931;28;95743;-71
2021/09/13 06:07:55;;;;;;;2.85;1.40;;;20.10;51.80;;;;;;5013101;28;95572;-71
2021/09/13 06:10:28;;;;;;;2.90;1.48;;;20.00;51.80;;;;;;5037417;27;95927;-71
2021/09/13 06:12:59;;;;;;;2.33;1.45;;;19.90;51.20;;;;;;5009248;28;95716;-71
2021/09/13 06:15:29;;;;;;;2.03;1.20;;;19.80;39.10;;;;;;5007234;27;99303;-70
2021/09/13 06:18:04;;;;;;;3.38;1.70;;;19.60;50.30;;;;;;4995844;27;103807;-72
2021/09/13 06:20:36;;;;;;;4.32;1.40;;;19.50;49.50;;;;;;4992108;28;96024;-72
2021/09/13 06:23:07;;;;;;;4.93;1.65;;;19.50;50.30;;;;;;5001350;28;97326;-70
2021/09/13 06:25:37;;;;;;;;;;;19.50;50.90;;;;;;5012997;28;97995;-76
2021/09/13 06:28:08;;;;;;;2.13;1.30;;;19.40;50.60;;;;;;5015395;28;97683;-72
2021/09/13 06:30:40;;;;;;;2.10;1.02;;;19.50;51.60;;;;;;5012430;27;95576;-74
2021/09/13 06:33:10;;;;;;;1.45;1.20;;;19.50;51.30;;;;;;5031948;27;95673;-73
2021/09/13 06:35:41;;;;;;;5.72;1.30;;;19.50;51.70;;;;;;5030232;28;95823;-76
2021/09/13 06:38:21;;;;;;;2.90;1.23;;;19.50;51.80;;;;;;5015206;28;97827;-73
2021/09/13 06:40:52;;;;;;;3.03;1.10;;;19.60;51.70;;;;;;5032410;28;95770;-74
2021/09/13 06:43:23;;;;;;;2.10;0.90;;;19.50;52.20;;;;;;5033905;28;95711;-73
2021/09/13 06:45:58;;;;;;;4.90;1.08;;;19.50;51.90;;;;;;5015051;28;97999;-75
2021/09/13 06:48:28;;;;;;;1.33;0.80;;;19.50;50.80;;;;;;5024644;28;95562;-73
2021/09/13 06:50:59;;;;;;;1.63;1.08;;;19.40;50.40;;;;;;5026423;28;95368;-75
2021/09/13 06:53:30;;;;;;;2.95;1.00;;;19.50;52.40;;;;;;5044753;28;95369;-75
2021/09/13 06:56:03;;;;;;;1.73;0.98;;;19.50;42.90;;;;;;5054804;27;97414;-76
2021/09/13 06:58:37;;;;;;;1.92;1.15;;;19.40;50.80;;;;;;5046563;28;95306;-74
2021/09/13 07:01:07;;;;;;;;;;;19.40;50.80;;;;;;5007945;28;95872;-73
2021/09/13 07:03:42;;;;;;;3.20;0.90;;;19.40;51.40;;;;;;5034825;28;95261;-75
2021/09/13 07:06:14;;;;;;;1.73;0.75;;;19.40;51.20;;;;;;5015183;28;95840;-73
2021/09/13 07:08:46;;;;;;;2.17;0.70;;;19.50;51.20;;;;;;5032078;28;95305;-75
2021/09/13 07:11:18;;;;;;;2.10;0.75;;;19.40;50.10;;;;;;5031127;28;95702;-74
2021/09/13 07:13:51;;;;;;;2.42;0.68;;;19.40;50.70;;;;;;5011510;28;95797;-74
2021/09/13 07:16:21;;;;;;;1.60;0.80;;;19.40;51.30;;;;;;5016050;27;96912;-73
2021/09/13 07:18:51;;;;;;;1.27;0.75;;;19.40;51.10;;;;;;5016093;27;96040;-75
2021/09/13 07:21:22;;;;;;;1.90;0.65;;;19.30;50.10;;;;;;5024417;27;95351;-77
2021/09/13 07:23:52;;;;;;;4.97;1.90;;;19.30;50.10;;;;;;5033224;28;95254;-73
2021/09/13 07:26:24;;;;;;;2.35;1.08;;;19.20;49.40;;;;;;5015430;28;96708;-73
2021/09/13 07:28:55;;;;;;;2.35;1.20;;;19.20;50.60;;;;;;5030486;28;97385;-75
2021/09/13 07:31:25;;;;;;;3.45;1.25;;;19.20;50.00;;;;;;5001716;28;95939;-73
2021/09/13 07:33:57;;;;;;;4.00;0.73;;;19.10;50.70;;;;;;5007019;28;95667;-73
2021/09/13 07:36:27;;;;;;;;;;;19.00;48.60;;;;;;5012376;28;97017;-72
2021/09/13 07:38:57;;;;;;;4.15;1.20;;;18.80;50.20;;;;;;4992785;28;95422;-73
2021/09/13 07:41:26;;;;;;;1.98;1.00;;;18.70;51.30;;;;;;5012152;28;95681;-71
2021/09/13 07:43:56;;;;;;;3.45;1.00;;;18.70;50.50;;;;;;5009074;28;96010;-72
2021/09/13 07:46:26;;;;;;;2.88;1.13;;;18.60;51.10;;;;;;4981516;28;96191;-74
2021/09/13 07:48:56;;;;;;;2.92;1.40;;;18.50;50.50;;;;;;5009186;28;95611;-73
2021/09/13 07:51:28;;;;;;;3.00;1.10;;;18.30;51.10;;;;;;4982707;28;96057;-73
2021/09/13 07:54:02;;;;;;;4.78;1.30;;;18.30;51.50;;;;;;4993866;28;95945;-73
2021/09/13 07:56:33;;;;;;;3.05;1.20;;;18.20;51.50;;;;;;5010184;28;95814;-73
2021/09/13 07:59:05;;;;;;;1.10;0.68;;;18.10;52.70;;;;;;5007924;28;96016;-74
2021/09/13 08:01:36;;;;;;;3.03;1.10;;;18.00;52.40;;;;;;4983572;28;95903;-73
2021/09/13 08:04:09;;;;;;;3.30;0.90;;;18.00;52.00;;;;;;4985566;28;95908;-72
2021/09/13 08:06:41;;;;;;;3.85;1.08;;;17.90;51.90;;;;;;5009364;28;95470;-73
2021/09/13 08:09:12;;;;;;;6.70;1.45;;;17.80;52.30;;;;;;4990043;28;96022;-74
2021/09/13 08:11:42;;;;;;;;;;;17.70;52.90;;;;;;5010164;28;95520;-73
2021/09/13 08:14:13;;;;;;;4.13;1.30;;;17.70;53.00;;;;;;4982259;28;95850;-73
2021/09/13 08:16:51;;;;;;;5.05;1.25;;;17.70;53.20;;;;;;5004186;28;96425;-73
2021/09/13 08:19:23;;;;;;;4.43;1.10;;;17.70;53.60;;;;;;4985323;28;95891;-74
2021/09/13 08:21:55;;;;;;;2.13;1.10;;;17.70;53.60;;;;;;5005421;28;96039;-73
2021/09/13 08:24:27;;;;;;;3.55;1.15;;;17.70;53.60;;;;;;5005189;28;95311;-73
2021/09/13 08:27:07;;;;;;;2.40;1.17;;;17.60;53.60;;;;;;4990127;28;96187;-73
2021/09/13 08:29:41;;;;;;;2.83;1.20;;;17.50;53.00;;;;;;5010162;28;95795;-72
2021/09/13 08:32:11;;;;;;;4.65;1.10;;;17.50;53.50;;;;;;5020288;28;97217;-73
2021/09/13 08:34:41;;;;;;;5.53;1.23;;;17.50;53.50;;;;;;5027227;28;95313;-72
2021/09/13 08:37:12;;;;;;;3.42;1.30;;;17.40;53.80;;;;;;4991882;28;98076;-72
2021/09/13 08:39:43;;;;;;;3.17;1.10;;;17.40;53.80;;;;;;5009762;28;96998;-72
2021/09/13 08:42:14;;;;;;;3.15;1.17;;;17.40;54.10;;;;;;5005580;28;95938;-72
2021/09/13 08:44:50;;;;;;;11.25;1.02;;;17.40;54.10;;;;;;5031816;28;95994;-72
2021/09/13 08:47:29;;;;;;;2.42;1.00;;;17.30;54.10;;;;;;5020888;28;96714;-73
2021/09/13 08:50:10;;;;;;;4.55;1.02;;;17.20;54.60;;;;;;5031221;28;96067;-73
2021/09/13 08:52:43;;;;;;;2.95;1.08;;;17.20;54.20;;;;;;5007091;28;95281;-75
2021/09/13 08:55:15;;;;;;;4.63;0.88;;;17.10;54.10;;;;;;5032079;27;95268;-76
2021/09/13 08:57:47;;;;;;;1.70;0.80;;;17.00;54.20;;;;;;5006661;28;97790;-74
2021/09/13 09:00:21;;;;;;;3.35;0.80;;;17.00;54.50;;;;;;5024720;28;96928;-76
2021/09/13 09:02:55;;;;;;;2.75;1.25;;;17.00;54.50;;;;;;5014032;28;95813;-74
2021/09/13 09:05:27;;;;;;;6.07;1.45;;;16.80;55.20;;;;;;5029855;28;95480;-74
2021/09/13 09:07:57;;;;;;;5.97;1.40;;;16.60;55.90;;;;;;4999060;28;98258;-73
2021/09/13 09:10:28;;;;;;;2.83;1.63;;;16.50;56.50;;;;;;5033538;28;95804;-74
2021/09/13 09:13:10;;;;;;;2.85;1.15;;;16.30;56.90;;;;;;5010526;28;96518;-74
2021/09/13 09:16:01;;;;;;;3.38;1.38;;;16.20;57.20;;;;;;5027263;28;95790;-74
2021/09/13 09:18:46;;;;;;;4.00;1.50;;;16.10;57.70;;;;;;5006321;27;95918;-76
2021/09/13 09:21:31;;;;;;;2.70;1.50;;;16.00;57.80;;;;;;5028932;27;95841;-74
2021/09/13 09:24:04;;;;;;;2.67;1.70;;;15.90;58.30;;;;;;5033597;28;95883;-74
2021/09/13 09:26:36;;;;;;;2.60;1.80;;;15.80;58.70;;;;;;5017298;28;95580;-74
2021/09/13 09:29:07;;;;;;;4.43;1.30;;;15.70;59.50;;;;;;5034739;28;95912;-75
2021/09/13 09:31:45;;;;;;;4.05;1.75;;;15.60;59.40;;;;;;5011860;28;95489;-74
2021/09/13 09:34:19;;;;;;;3.33;2.00;;;15.50;59.40;;;;;;5033737;28;95795;-74
2021/09/13 09:37:01;;;;;;;7.43;2.25;;;15.30;60.20;;;;;;5029715;28;95239;-73
2021/09/13 09:39:55;;;;;;;3.60;2.70;;;15.20;60.70;;;;;;4999546;28;96475;-74
2021/09/13 09:42:30;;;;;;;5.13;1.83;;;15.20;60.70;;;;;;5017754;28;96054;-70
2021/09/13 09:45:27;;;;;;;2.92;1.38;;;15.10;62.20;;;;;;5010390;28;95959;-73
2021/09/13 09:48:12;;;;;;;3.35;1.60;;;15.40;63.10;;;;;;5026645;28;95976;-73
2021/09/13 09:50:43;;;;;;;2.30;1.10;;;15.70;62.80;;;;;;4997293;28;96125;-71
2021/09/13 09:53:20;;;;;;;2.30;1.20;;;15.90;62.40;;;;;;5016107;28;95901;-73
2021/09/13 09:55:52;;;;;;;3.08;1.33;;;16.00;62.20;;;;;;5035744;28;95240;-72
2021/09/13 09:58:24;;;;;;;2.20;1.30;;;16.10;62.10;;;;;;5034831;28;95572;-71
2021/09/13 10:00:57;;;;;;;2.65;1.20;;;16.20;62.20;;;;;;5024297;28;95857;-72
2021/09/13 10:03:33;;;;;;;1.40;1.13;;;16.20;62.10;;;;;;5033436;28;96250;-72
2021/09/13 10:06:04;;;;;;;2.70;1.42;;;16.30;62.10;;;;;;5014399;28;96034;-72
2021/09/13 10:08:37;;;;;;;2.67;1.10;;;16.30;62.30;;;;;;5034670;27;95214;-71
2021/09/13 10:11:08;;;;;;;1.83;1.58;;;16.40;62.20;;;;;;5009492;28;98501;-72
2021/09/13 10:13:41;;;;;;;;;;;16.40;62.30;;;;;;5037725;28;95830;-71
2021/09/13 10:16:11;;;;;;;3.10;0.95;;;16.50;62.40;;;;;;5015339;28;102601;-73
2021/09/13 10:18:44;;;;;;;2.33;1.02;;;16.50;62.50;;;;;;5017187;27;95771;-73
2021/09/13 10:21:18;;;;;;;0.95;0.90;;;16.50;63.30;;;;;;5009324;28;95494;-74
2021/09/13 10:23:52;;;;;;;1.15;0.98;;;16.50;63.40;;;;;;5032773;28;95852;-74
2021/09/13 10:26:24;;;;;;;1.48;1.10;;;16.50;63.50;;;;;;5029185;27;96024;-75
2021/09/13 10:29:04;;;;;;;3.33;1.20;;;16.50;63.60;;;;;;5033976;28;95235;-74
2021/09/13 10:31:45;;;;;;;1.58;1.38;;;16.50;63.80;;;;;;5029573;28;97797;-73
2021/09/13 10:34:20;;;;;;;2.00;1.13;;;16.50;63.80;;;;;;5030984;28;98467;-74
2021/09/13 10:37:14;;;;;;;3.22;1.23;;;16.50;64.10;;;;;;5030470;28;95404;-74
2021/09/13 10:39:50;;;;;;;1.88;1.05;;;16.50;64.10;;;;;;5018771;28;96064;-73
2021/09/13 10:42:47;;;;;;;3.85;1.55;;;16.50;64.20;;;;;;5034094;28;96694;-74
2021/09/13 10:45:38;;;;;;;2.72;1.08;;;16.50;64.30;;;;;;5029389;28;95735;-73
2021/09/13 10:48:09;;;;;;;2.73;1.10;;;16.50;64.20;;;;;;5016146;28;95334;-74
2021/09/13 10:50:56;;;;;;;1.75;1.02;;;16.50;64.30;;;;;;5012723;28;95872;-74
2021/09/13 10:53:27;;;;;;;2.08;0.90;;;16.50;64.30;;;;;;5029117;28;95916;-74
2021/09/13 10:56:22;;;;;;;2.35;0.90;;;16.50;64.40;;;;;;5031140;28;95780;-75
2021/09/13 10:58:56;;;;;;;1.50;1.05;;;16.50;64.60;;;;;;5031101;28;95258;-74
2021/09/13 11:01:30;;;;;;;1.48;1.00;;;16.40;64.50;;;;;;5026007;28;95266;-74
2021/09/13 11:04:07;;;;;;;3.78;1.27;;;16.40;64.50;;;;;;5016458;28;98294;-75
2021/09/13 11:06:41;;;;;;;1.80;1.15;;;16.40;64.60;;;;;;5020502;28;95565;-74
2021/09/13 11:09:18;;;;;;;1.38;0.80;;;16.40;64.70;;;;;;5015002;28;95667;-74
2021/09/13 11:11:55;;;;;;;0.98;0.77;;;16.40;64.80;;;;;;5046744;28;95213;-75
2021/09/13 11:14:32;;;;;;;1.48;1.15;;;16.40;64.60;;;;;;5049201;28;95505;-74
2021/09/13 11:17:04;;;;;;;2.55;1.13;;;16.40;64.60;;;;;;5040246;27;95603;-74
2021/09/13 11:19:38;;;;;;;2.90;1.35;;;16.40;64.70;;;;;;5022322;27;95924;-74
2021/09/13 11:22:08;;;;;;;1.73;1.20;;;16.30;64.60;;;;;;5048327;27;94892;-73
2021/09/13 11:24:41;;;;;;;2.65;1.52;;;16.30;64.70;;;;;;5029828;28;95835;-74
2021/09/13 11:27:14;;;;;;;2.63;1.55;;;16.30;64.70;;;;;;4998356;28;98514;-74
2021/09/13 11:29:48;;;;;;;1.90;1.15;;;16.30;64.70;;;;;;5015014;28;96056;-74
2021/09/13 11:32:20;;;;;;;1.75;1.23;;;16.30;64.70;;;;;;5010966;28;95328;-73
2021/09/13 11:34:52;;;;;;;2.53;1.73;;;16.20;64.70;;;;;;5035768;28;96408;-74
2021/09/13 11:37:27;;;;;;;4.00;1.90;;;16.20;64.80;;;;;;5033860;28;95644;-73
2021/09/13 11:40:17;;;;;;;1.20;1.10;;;16.20;64.70;;;;;;5030953;28;95937;-74
2021/09/13 11:42:47;;;;;;;2.47;1.50;;;16.20;64.80;;;;;;5031346;28;95420;-74
2021/09/13 11:45:18;;;;;;;3.60;1.70;;;16.20;64.90;;;;;;5027053;28;95888;-73
2021/09/13 11:48:04;;;;;;;2.70;1.92;;;16.10;64.70;;;;;;5030158;28;100566;-73
2021/09/13 11:50:36;;;;;;;2.78;1.92;;;16.10;64.90;;;;;;5015516;28;95670;-74
2021/09/13 11:53:15;;;;;;;2.30;1.70;;;16.10;64.80;;;;;;5014346;28;95442;-73
2021/09/13 11:55:46;;;;;;;3.65;2.25;;;16.10;64.80;;;;;;5033499;28;95902;-73
2021/09/13 11:58:23;;;;;;;2.58;1.60;;;16.10;64.90;;;;;;5031523;28;96061;-74
2021/09/13 12:00:55;;;;;;;2.20;1.80;;;16.00;64.90;;;;;;5028716;28;95672;-73
2021/09/13 12:03:32;;;;;;;2.85;2.00;;;16.00;64.90;;;;;;5027822;28;96508;-74
2021/09/13 12:06:03;;;;;;;3.25;2.38;;;16.00;64.90;;;;;;5033148;28;95892;-73
2021/09/13 12:08:35;;;;;;;2.70;2.10;;;16.00;65.00;;;;;;5031726;28;95573;-73
2021/09/13 12:11:06;;;;;;;;;;;15.90;65.00;;;;;;5031785;28;95731;-74
2021/09/13 12:13:38;;;;;;;3.30;2.40;;;15.90;65.20;;;;;;5032651;28;95472;-74
2021/09/13 12:16:25;;;;;;;2.90;2.08;;;15.90;65.10;;;;;;4988500;28;98056;-74
2021/09/13 12:18:56;;;;;;;3.83;2.40;;;15.90;65.20;;;;;;5001732;28;95342;-73
2021/09/13 12:21:26;;;;;;;4.13;2.53;;;15.80;65.20;;;;;;4989297;28;95833;-73
2021/09/13 12:24:00;;;;;;;3.67;2.58;;;15.80;65.20;;;;;;5010536;28;95713;-73
2021/09/13 12:26:31;;;;;;;4.00;3.03;;;15.80;66.00;;;;;;5007040;28;98535;-73
2021/09/13 12:29:09;;;;;;;4.03;2.90;;;15.80;65.40;;;;;;5011729;28;95347;-73
2021/09/13 12:31:39;;;;;;;4.13;2.90;;;15.80;65.40;;;;;;5007298;28;96260;-73
2021/09/13 12:34:10;;;;;;;3.03;2.70;;;15.70;65.40;;;;;;5031674;28;95415;-73
2021/09/13 12:36:41;;;;;;;;;;;15.70;66.00;;;;;;5013966;28;96020;-74
2021/09/13 12:39:11;;;;;;;4.07;2.95;;;15.70;65.50;;;;;;5031644;28;95779;-73
2021/09/13 12:41:43;;;;;;;4.25;2.90;;;15.70;54.10;;;;;;5033077;28;95212;-73
2021/09/13 12:44:17;;;;;;;7.22;3.63;;;15.60;65.60;;;;;;5038812;28;95848;-75
2021/09/13 12:46:52;;;;;;;3.63;2.45;;;15.60;65.60;;;;;;5013562;27;96841;-76
2021/09/13 12:49:25;;;;;;;5.43;3.67;;;15.50;65.80;;;;;;5006322;28;95958;-76
2021/09/13 12:51:56;;;;;;;3.95;2.92;;;15.60;66.30;;;;;;5009604;28;95942;-74
2021/09/13 12:54:35;;;;;;;5.15;2.83;;;15.50;66.20;;;;;;5026465;28;95817;-75
2021/09/13 12:57:06;;;;;;;5.32;3.60;;;15.50;66.20;;;;;;5024940;28;96531;-74
2021/09/13 12:59:38;;;;;;;6.72;4.03;;;15.60;65.60;;;;;;5007326;28;96481;-74
2021/09/13 13:02:18;;;;;;;8.07;3.90;;;15.60;66.00;;;;;;4999978;28;97654;-74
2021/09/13 13:04:50;;;;;;;7.70;3.55;;;15.60;66.00;;;;;;5002926;28;96239;-73
2021/09/13 13:07:22;;;;;;;6.50;3.50;;;15.60;66.10;;;;;;4985340;28;95751;-74
2021/09/13 13:09:53;;;;;;;3.97;2.90;;;15.60;66.00;;;;;;4984996;28;95441;-75
2021/09/13 13:12:24;;;;;;;4.05;2.83;;;15.70;66.00;;;;;;4984323;28;96043;-76
2021/09/13 13:14:58;;;;;;;4.43;3.20;;;15.70;66.00;;;;;;5008664;28;95736;-76
2021/09/13 13:17:31;;;;;;;3.75;3.08;;;15.70;65.90;;;;;;4991080;28;96278;-76
2021/09/13 13:20:04;;;;;;;5.72;3.33;;;15.80;65.80;;;;;;5015413;27;95959;-75
2021/09/13 13:22:34;;;;;;;3.97;3.17;;;15.80;65.70;;;;;;5028001;28;95397;-74
2021/09/13 13:25:06;;;;;;;3.88;3.10;;;15.80;65.60;;;;;;5007247;28;95683;-75
2021/09/13 13:27:37;;;;;;;3.60;3.10;;;15.90;65.50;;;;;;5029618;28;96822;-75
2021/09/13 13:30:08;;;;;;;4.37;2.70;;;15.90;65.40;;;;;;5026856;28;95832;-76
2021/09/13 13:32:38;;;;;;;4.05;3.08;;;15.90;65.40;;;;;;5007291;28;95292;-76